sensor_id;sensor_type;location;lat;lon;timestamp;P1;P2;P0
76679;PMS5003;65597;51.520;-0.224;2023-10-13T00:01:20;1;1;
76679;PMS5003;65597;51.520;-0.224;2023-10-13T00:03:45;0;0;
76679;PMS5003;65597;51.520;-0.224;2023-10-13T00:06:11;2;2;
76679;PMS5003;65597;51.520;-0.224;2023-10-13T00:08:36;1;1;
76679;PMS5003;65597;51.520;-0.224;2023-10-13T00:11:02;2;1;
76679;PMS5003;65597;51.520;-0.224;2023-10-13T00:13:27;0;0;
76679;PMS5003;65597;51.520;-0.224;2023-10-13T00:15:52;4;4;
76679;PMS5003;65597;51.520;-0.224;2023-10-13T00:18:17;3;3;
76679;PMS5003;65597;51.520;-0.224;2023-10-13T00:20:43;2;2;
76679;PMS5003;65597;51.520;-0.224;2023-10-13T00:23:08;0;0;
76679;PMS5003;65597;51.520;-0.224;2023-10-13T00:25:33;2;2;
76679;PMS5003;65597;51.520;-0.224;2023-10-13T00:28:02;1;1;
76679;PMS5003;65597;51.520;-0.224;2023-10-13T00:30:24;1;1;
76679;PMS5003;65597;51.520;-0.224;2023-10-13T00:32:50;1;1;
76679;PMS5003;65597;51.520;-0.224;2023-10-13T00:35:15;2;2;
76679;PMS5003;65597;51.520;-0.224;2023-10-13T00:37:40;2;1;
76679;PMS5003;65597;51.520;-0.224;2023-10-13T00:40:06;3;2;
76679;PMS5003;65597;51.520;-0.224;2023-10-13T00:42:31;2;2;
76679;PMS5003;65597;51.520;-0.224;2023-10-13T00:44:56;3;2;
76679;PMS5003;65597;51.520;-0.224;2023-10-13T00:47:21;0;0;
76679;PMS5003;65597;51.520;-0.224;2023-10-13T00:49:47;0;0;
76679;PMS5003;65597;51.520;-0.224;2023-10-13T00:52:12;0;0;
76679;PMS5003;65597;51.520;-0.224;2023-10-13T00:54:37;2;2;
76679;PMS5003;65597;51.520;-0.224;2023-10-13T00:57:03;2;2;
76679;PMS5003;65597;51.520;-0.224;2023-10-13T00:59:28;1;1;
76679;PMS5003;65597;51.520;-0.224;2023-10-13T01:01:53;1;1;
76679;PMS5003;65597;51.520;-0.224;2023-10-13T01:04:19;0;0;
76679;PMS5003;65597;51.520;-0.224;2023-10-13T01:06:44;0;0;
76679;PMS5003;65597;51.520;-0.224;2023-10-13T01:09:10;1;1;
76679;PMS5003;65597;51.520;-0.224;2023-10-13T01:11:34;0;0;
76679;PMS5003;65597;51.520;-0.224;2023-10-13T01:14:00;0;0;
76679;PMS5003;65597;51.520;-0.224;2023-10-13T01:16:27;1;1;
76679;PMS5003;65597;51.520;-0.224;2023-10-13T01:18:50;0;0;
76679;PMS5003;65597;51.520;-0.224;2023-10-13T01:21:16;0;0;
76679;PMS5003;65597;51.520;-0.224;2023-10-13T01:23:42;0;0;
76679;PMS5003;65597;51.520;-0.224;2023-10-13T01:26:06;0;0;
76679;PMS5003;65597;51.520;-0.224;2023-10-13T01:28:33;0;0;
76679;PMS5003;65597;51.520;-0.224;2023-10-13T01:30:57;0;0;
76679;PMS5003;65597;51.520;-0.224;2023-10-13T01:33:22;0;0;
76679;PMS5003;65597;51.520;-0.224;2023-10-13T01:35:48;0;0;
76679;PMS5003;65597;51.520;-0.224;2023-10-13T01:38:13;0;0;
76679;PMS5003;65597;51.520;-0.224;2023-10-13T01:40:40;2;1;
76679;PMS5003;65597;51.520;-0.224;2023-10-13T01:43:04;1;1;
76679;PMS5003;65597;51.520;-0.224;2023-10-13T01:45:29;2;2;
76679;PMS5003;65597;51.520;-0.224;2023-10-13T01:47:55;2;2;
76679;PMS5003;65597;51.520;-0.224;2023-10-13T01:50:20;7;4;
76679;PMS5003;65597;51.520;-0.224;2023-10-13T01:52:47;1;1;
76679;PMS5003;65597;51.520;-0.224;2023-10-13T01:55:11;4;2;
76679;PMS5003;65597;51.520;-0.224;2023-10-13T01:57:36;3;2;
76679;PMS5003;65597;51.520;-0.224;2023-10-13T02:00:01;5;3;
76679;PMS5003;65597;51.520;-0.224;2023-10-13T02:02:26;5;5;
76679;PMS5003;65597;51.520;-0.224;2023-10-13T02:04:51;4;4;
76679;PMS5003;65597;51.520;-0.224;2023-10-13T02:07:17;5;4;
76679;PMS5003;65597;51.520;-0.224;2023-10-13T02:09:42;10;5;
76679;PMS5003;65597;51.520;-0.224;2023-10-13T02:12:07;5;4;
76679;PMS5003;65597;51.520;-0.224;2023-10-13T02:14:32;4;3;
76679;PMS5003;65597;51.520;-0.224;2023-10-13T02:16:58;3;3;
76679;PMS5003;65597;51.520;-0.224;2023-10-13T02:19:23;4;4;
76679;PMS5003;65597;51.520;-0.224;2023-10-13T02:21:48;8;7;
76679;PMS5003;65597;51.520;-0.224;2023-10-13T02:24:14;10;9;
76679;PMS5003;65597;51.520;-0.224;2023-10-13T02:26:40;10;7;
76679;PMS5003;65597;51.520;-0.224;2023-10-13T02:29:05;6;5;
76679;PMS5003;65597;51.520;-0.224;2023-10-13T02:31:30;9;8;
76679;PMS5003;65597;51.520;-0.224;2023-10-13T02:33:55;8;6;
76679;PMS5003;65597;51.520;-0.224;2023-10-13T02:36:20;8;7;
76679;PMS5003;65597;51.520;-0.224;2023-10-13T02:38:45;13;6;
76679;PMS5003;65597;51.520;-0.224;2023-10-13T02:41:11;10;6;
76679;PMS5003;65597;51.520;-0.224;2023-10-13T02:43:36;8;7;
76679;PMS5003;65597;51.520;-0.224;2023-10-13T02:46:02;10;7;
76679;PMS5003;65597;51.520;-0.224;2023-10-13T02:48:28;6;5;
76679;PMS5003;65597;51.520;-0.224;2023-10-13T02:50:56;11;10;
76679;PMS5003;65597;51.520;-0.224;2023-10-13T02:53:18;11;10;
76679;PMS5003;65597;51.520;-0.224;2023-10-13T02:55:49;9;8;
76679;PMS5003;65597;51.520;-0.224;2023-10-13T02:58:08;8;8;
76679;PMS5003;65597;51.520;-0.224;2023-10-13T03:00:33;5;5;
76679;PMS5003;65597;51.520;-0.224;2023-10-13T03:02:59;9;7;
76679;PMS5003;65597;51.520;-0.224;2023-10-13T03:05:25;8;6;
76679;PMS5003;65597;51.520;-0.224;2023-10-13T03:07:49;11;9;
76679;PMS5003;65597;51.520;-0.224;2023-10-13T03:10:14;10;9;
76679;PMS5003;65597;51.520;-0.224;2023-10-13T03:12:39;13;8;
76679;PMS5003;65597;51.520;-0.224;2023-10-13T03:15:05;11;9;
76679;PMS5003;65597;51.520;-0.224;2023-10-13T03:17:31;8;7;
76679;PMS5003;65597;51.520;-0.224;2023-10-13T03:19:55;8;8;
76679;PMS5003;65597;51.520;-0.224;2023-10-13T03:22:21;12;8;
76679;PMS5003;65597;51.520;-0.224;2023-10-13T03:24:46;9;9;
76679;PMS5003;65597;51.520;-0.224;2023-10-13T03:27:12;9;8;
76679;PMS5003;65597;51.520;-0.224;2023-10-13T03:29:37;9;8;
76679;PMS5003;65597;51.520;-0.224;2023-10-13T03:32:02;13;13;
76679;PMS5003;65597;51.520;-0.224;2023-10-13T03:34:27;10;9;
76679;PMS5003;65597;51.520;-0.224;2023-10-13T03:36:52;12;11;
76679;PMS5003;65597;51.520;-0.224;2023-10-13T03:39:17;11;11;
76679;PMS5003;65597;51.520;-0.224;2023-10-13T03:41:44;14;13;
76679;PMS5003;65597;51.520;-0.224;2023-10-13T03:44:08;18;14;
76679;PMS5003;65597;51.520;-0.224;2023-10-13T03:46:34;16;12;
76679;PMS5003;65597;51.520;-0.224;2023-10-13T03:48:59;14;13;
76679;PMS5003;65597;51.520;-0.224;2023-10-13T03:51:24;15;12;
76679;PMS5003;65597;51.520;-0.224;2023-10-13T03:53:49;16;15;
76679;PMS5003;65597;51.520;-0.224;2023-10-13T03:56:15;12;12;
76679;PMS5003;65597;51.520;-0.224;2023-10-13T03:58:40;15;14;
76679;PMS5003;65597;51.520;-0.224;2023-10-13T04:01:05;14;13;
76679;PMS5003;65597;51.520;-0.224;2023-10-13T04:03:31;15;12;
76679;PMS5003;65597;51.520;-0.224;2023-10-13T04:05:57;12;11;
76679;PMS5003;65597;51.520;-0.224;2023-10-13T04:08:22;14;13;
76679;PMS5003;65597;51.520;-0.224;2023-10-13T04:10:47;16;13;
76679;PMS5003;65597;51.520;-0.224;2023-10-13T04:13:12;12;12;
76679;PMS5003;65597;51.520;-0.224;2023-10-13T04:15:37;18;14;
76679;PMS5003;65597;51.520;-0.224;2023-10-13T04:18:02;17;15;
76679;PMS5003;65597;51.520;-0.224;2023-10-13T04:20:27;23;16;
76679;PMS5003;65597;51.520;-0.224;2023-10-13T04:22:53;16;14;
76679;PMS5003;65597;51.520;-0.224;2023-10-13T04:25:19;16;13;
76679;PMS5003;65597;51.520;-0.224;2023-10-13T04:27:43;12;11;
76679;PMS5003;65597;51.520;-0.224;2023-10-13T04:30:10;11;11;
76679;PMS5003;65597;51.520;-0.224;2023-10-13T04:32:34;14;11;
76679;PMS5003;65597;51.520;-0.224;2023-10-13T04:35:00;12;12;
76679;PMS5003;65597;51.520;-0.224;2023-10-13T04:37:25;14;13;
76679;PMS5003;65597;51.520;-0.224;2023-10-13T04:39:49;12;12;
76679;PMS5003;65597;51.520;-0.224;2023-10-13T04:42:15;15;13;
76679;PMS5003;65597;51.520;-0.224;2023-10-13T04:44:41;11;11;
76679;PMS5003;65597;51.520;-0.224;2023-10-13T04:47:06;14;13;
76679;PMS5003;65597;51.520;-0.224;2023-10-13T04:49:32;16;16;
76679;PMS5003;65597;51.520;-0.224;2023-10-13T04:51:57;13;13;
76679;PMS5003;65597;51.520;-0.224;2023-10-13T04:54:25;17;15;
76679;PMS5003;65597;51.520;-0.224;2023-10-13T04:56:47;13;13;
76679;PMS5003;65597;51.520;-0.224;2023-10-13T04:59:13;11;10;
76679;PMS5003;65597;51.520;-0.224;2023-10-13T05:01:38;15;12;
76679;PMS5003;65597;51.520;-0.224;2023-10-13T05:04:04;16;12;
76679;PMS5003;65597;51.520;-0.224;2023-10-13T05:06:29;18;15;
76679;PMS5003;65597;51.520;-0.224;2023-10-13T05:08:54;14;11;
76679;PMS5003;65597;51.520;-0.224;2023-10-13T05:11:19;14;11;
76679;PMS5003;65597;51.520;-0.224;2023-10-13T05:13:45;17;14;
76679;PMS5003;65597;51.520;-0.224;2023-10-13T05:16:10;14;12;
76679;PMS5003;65597;51.520;-0.224;2023-10-13T05:18:35;15;14;
76679;PMS5003;65597;51.520;-0.224;2023-10-13T05:21:00;15;15;
76679;PMS5003;65597;51.520;-0.224;2023-10-13T05:23:25;17;14;
76679;PMS5003;65597;51.520;-0.224;2023-10-13T05:25:51;15;14;
76679;PMS5003;65597;51.520;-0.224;2023-10-13T05:28:16;19;13;
76679;PMS5003;65597;51.520;-0.224;2023-10-13T05:30:42;25;14;
76679;PMS5003;65597;51.520;-0.224;2023-10-13T05:33:06;24;17;
76679;PMS5003;65597;51.520;-0.224;2023-10-13T05:35:32;22;16;
76679;PMS5003;65597;51.520;-0.224;2023-10-13T05:37:57;16;13;
76679;PMS5003;65597;51.520;-0.224;2023-10-13T05:40:23;23;13;
76679;PMS5003;65597;51.520;-0.224;2023-10-13T05:42:49;14;12;
76679;PMS5003;65597;51.520;-0.224;2023-10-13T05:45:14;22;13;
76679;PMS5003;65597;51.520;-0.224;2023-10-13T05:47:39;16;12;
76679;PMS5003;65597;51.520;-0.224;2023-10-13T05:50:04;19;14;
76679;PMS5003;65597;51.520;-0.224;2023-10-13T05:52:29;21;14;
76679;PMS5003;65597;51.520;-0.224;2023-10-13T05:54:57;18;15;
76679;PMS5003;65597;51.520;-0.224;2023-10-13T05:57:20;20;13;
76679;PMS5003;65597;51.520;-0.224;2023-10-13T05:59:45;13;12;
76679;PMS5003;65597;51.520;-0.224;2023-10-13T06:02:11;20;13;
76679;PMS5003;65597;51.520;-0.224;2023-10-13T06:04:36;17;14;
76679;PMS5003;65597;51.520;-0.224;2023-10-13T06:07:01;21;17;
76679;PMS5003;65597;51.520;-0.224;2023-10-13T06:09:26;15;13;
76679;PMS5003;65597;51.520;-0.224;2023-10-13T06:11:52;17;12;
76679;PMS5003;65597;51.520;-0.224;2023-10-13T06:14:17;14;11;
76679;PMS5003;65597;51.520;-0.224;2023-10-13T06:16:42;20;14;
76679;PMS5003;65597;51.520;-0.224;2023-10-13T06:19:08;15;13;
76679;PMS5003;65597;51.520;-0.224;2023-10-13T06:21:32;15;13;
76679;PMS5003;65597;51.520;-0.224;2023-10-13T06:23:58;12;11;
76679;PMS5003;65597;51.520;-0.224;2023-10-13T06:26:23;15;14;
76679;PMS5003;65597;51.520;-0.224;2023-10-13T06:28:49;20;13;
76679;PMS5003;65597;51.520;-0.224;2023-10-13T06:31:16;15;10;
76679;PMS5003;65597;51.520;-0.224;2023-10-13T06:33:39;12;10;
76679;PMS5003;65597;51.520;-0.224;2023-10-13T06:36:05;10;10;
76679;PMS5003;65597;51.520;-0.224;2023-10-13T06:38:31;21;14;
76679;PMS5003;65597;51.520;-0.224;2023-10-13T06:40:56;13;10;
76679;PMS5003;65597;51.520;-0.224;2023-10-13T06:43:22;14;11;
76679;PMS5003;65597;51.520;-0.224;2023-10-13T06:45:47;14;11;
76679;PMS5003;65597;51.520;-0.224;2023-10-13T06:48:12;15;11;
76679;PMS5003;65597;51.520;-0.224;2023-10-13T06:50:38;13;11;
76679;PMS5003;65597;51.520;-0.224;2023-10-13T06:53:03;21;13;
76679;PMS5003;65597;51.520;-0.224;2023-10-13T06:55:28;17;12;
76679;PMS5003;65597;51.520;-0.224;2023-10-13T06:57:53;14;11;
76679;PMS5003;65597;51.520;-0.224;2023-10-13T07:00:18;12;12;
76679;PMS5003;65597;51.520;-0.224;2023-10-13T07:02:43;17;11;
76679;PMS5003;65597;51.520;-0.224;2023-10-13T07:05:08;12;11;
76679;PMS5003;65597;51.520;-0.224;2023-10-13T07:07:35;14;11;
76679;PMS5003;65597;51.520;-0.224;2023-10-13T07:09:59;14;12;
76679;PMS5003;65597;51.520;-0.224;2023-10-13T07:12:25;11;10;
76679;PMS5003;65597;51.520;-0.224;2023-10-13T07:14:50;11;11;
76679;PMS5003;65597;51.520;-0.224;2023-10-13T07:17:15;9;9;
76679;PMS5003;65597;51.520;-0.224;2023-10-13T07:19:42;11;10;
76679;PMS5003;65597;51.520;-0.224;2023-10-13T07:22:06;13;10;
76679;PMS5003;65597;51.520;-0.224;2023-10-13T07:24:31;14;11;
76679;PMS5003;65597;51.520;-0.224;2023-10-13T07:26:57;9;8;
76679;PMS5003;65597;51.520;-0.224;2023-10-13T07:29:22;18;15;
76679;PMS5003;65597;51.520;-0.224;2023-10-13T07:31:47;14;12;
76679;PMS5003;65597;51.520;-0.224;2023-10-13T07:34:12;15;13;
76679;PMS5003;65597;51.520;-0.224;2023-10-13T07:36:39;14;13;
76679;PMS5003;65597;51.520;-0.224;2023-10-13T07:39:03;13;11;
76679;PMS5003;65597;51.520;-0.224;2023-10-13T07:41:28;16;11;
76679;PMS5003;65597;51.520;-0.224;2023-10-13T07:43:54;15;13;
76679;PMS5003;65597;51.520;-0.224;2023-10-13T07:46:18;12;11;
76679;PMS5003;65597;51.520;-0.224;2023-10-13T07:48:44;14;14;
76679;PMS5003;65597;51.520;-0.224;2023-10-13T07:51:09;16;13;
76679;PMS5003;65597;51.520;-0.224;2023-10-13T07:53:35;19;14;
76679;PMS5003;65597;51.520;-0.224;2023-10-13T07:56:02;17;15;
76679;PMS5003;65597;51.520;-0.224;2023-10-13T07:58:26;13;12;
76679;PMS5003;65597;51.520;-0.224;2023-10-13T08:00:52;15;12;
76679;PMS5003;65597;51.520;-0.224;2023-10-13T08:03:17;12;11;
76679;PMS5003;65597;51.520;-0.224;2023-10-13T08:05:42;20;15;
76679;PMS5003;65597;51.520;-0.224;2023-10-13T08:08:07;20;16;
76679;PMS5003;65597;51.520;-0.224;2023-10-13T08:10:35;16;12;
76679;PMS5003;65597;51.520;-0.224;2023-10-13T08:12:57;18;15;
76679;PMS5003;65597;51.520;-0.224;2023-10-13T08:15:22;14;13;
76679;PMS5003;65597;51.520;-0.224;2023-10-13T08:17:48;20;18;
76679;PMS5003;65597;51.520;-0.224;2023-10-13T08:20:13;15;14;
76679;PMS5003;65597;51.520;-0.224;2023-10-13T08:22:39;17;14;
76679;PMS5003;65597;51.520;-0.224;2023-10-13T08:25:04;15;14;
76679;PMS5003;65597;51.520;-0.224;2023-10-13T08:27:29;17;16;
76679;PMS5003;65597;51.520;-0.224;2023-10-13T08:29:54;22;18;
76679;PMS5003;65597;51.520;-0.224;2023-10-13T08:32:19;30;22;
76679;PMS5003;65597;51.520;-0.224;2023-10-13T08:34:46;19;15;
76679;PMS5003;65597;51.520;-0.224;2023-10-13T08:37:10;22;17;
76679;PMS5003;65597;51.520;-0.224;2023-10-13T08:39:35;26;19;
76679;PMS5003;65597;51.520;-0.224;2023-10-13T08:42:01;15;15;
76679;PMS5003;65597;51.520;-0.224;2023-10-13T08:44:28;18;15;
76679;PMS5003;65597;51.520;-0.224;2023-10-13T08:46:52;18;15;
76679;PMS5003;65597;51.520;-0.224;2023-10-13T08:49:17;19;17;
76679;PMS5003;65597;51.520;-0.224;2023-10-13T08:51:42;15;14;
76679;PMS5003;65597;51.520;-0.224;2023-10-13T08:54:08;16;14;
76679;PMS5003;65597;51.520;-0.224;2023-10-13T08:56:33;13;13;
76679;PMS5003;65597;51.520;-0.224;2023-10-13T08:58:59;17;15;
76679;PMS5003;65597;51.520;-0.224;2023-10-13T09:01:24;16;14;
76679;PMS5003;65597;51.520;-0.224;2023-10-13T09:03:49;17;14;
76679;PMS5003;65597;51.520;-0.224;2023-10-13T09:06:14;17;12;
76679;PMS5003;65597;51.520;-0.224;2023-10-13T09:08:41;23;19;
76679;PMS5003;65597;51.520;-0.224;2023-10-13T09:11:05;20;18;
76679;PMS5003;65597;51.520;-0.224;2023-10-13T09:13:34;15;15;
76679;PMS5003;65597;51.520;-0.224;2023-10-13T09:15:55;17;15;
76679;PMS5003;65597;51.520;-0.224;2023-10-13T09:18:24;18;17;
76679;PMS5003;65597;51.520;-0.224;2023-10-13T09:20:46;16;14;
76679;PMS5003;65597;51.520;-0.224;2023-10-13T09:23:12;18;15;
76679;PMS5003;65597;51.520;-0.224;2023-10-13T09:25:37;15;13;
76679;PMS5003;65597;51.520;-0.224;2023-10-13T09:28:02;23;18;
76679;PMS5003;65597;51.520;-0.224;2023-10-13T09:30:27;15;14;
76679;PMS5003;65597;51.520;-0.224;2023-10-13T09:35:17;18;16;
76679;PMS5003;65597;51.520;-0.224;2023-10-13T09:37:43;12;11;
76679;PMS5003;65597;51.520;-0.224;2023-10-13T09:40:08;17;17;
76679;PMS5003;65597;51.520;-0.224;2023-10-13T09:42:33;18;15;
76679;PMS5003;65597;51.520;-0.224;2023-10-13T09:44:58;13;12;
76679;PMS5003;65597;51.520;-0.224;2023-10-13T09:47:24;21;14;
76679;PMS5003;65597;51.520;-0.224;2023-10-13T09:49:49;18;15;
76679;PMS5003;65597;51.520;-0.224;2023-10-13T09:52:15;16;15;
76679;PMS5003;65597;51.520;-0.224;2023-10-13T09:54:39;13;13;
76679;PMS5003;65597;51.520;-0.224;2023-10-13T09:57:07;10;10;
76679;PMS5003;65597;51.520;-0.224;2023-10-13T09:59:31;21;17;
76679;PMS5003;65597;51.520;-0.224;2023-10-13T10:01:55;12;12;
76679;PMS5003;65597;51.520;-0.224;2023-10-13T10:04:21;11;10;
76679;PMS5003;65597;51.520;-0.224;2023-10-13T10:09:11;15;12;
76679;PMS5003;65597;51.520;-0.224;2023-10-13T10:14:04;10;9;
76679;PMS5003;65597;51.520;-0.224;2023-10-13T10:16:32;9;8;
76679;PMS5003;65597;51.520;-0.224;2023-10-13T10:21:18;9;8;
76679;PMS5003;65597;51.520;-0.224;2023-10-13T10:23:51;10;10;
76679;PMS5003;65597;51.520;-0.224;2023-10-13T10:26:10;8;8;
76679;PMS5003;65597;51.520;-0.224;2023-10-13T10:28:35;8;7;
76679;PMS5003;65597;51.520;-0.224;2023-10-13T10:33:29;10;9;
76679;PMS5003;65597;51.520;-0.224;2023-10-13T10:38:15;10;8;
76679;PMS5003;65597;51.520;-0.224;2023-10-13T10:43:05;14;10;
76679;PMS5003;65597;51.520;-0.224;2023-10-13T10:45:31;13;11;
76679;PMS5003;65597;51.520;-0.224;2023-10-13T10:47:56;11;8;
76679;PMS5003;65597;51.520;-0.224;2023-10-13T10:50:25;10;9;
76679;PMS5003;65597;51.520;-0.224;2023-10-13T10:52:46;8;8;
76679;PMS5003;65597;51.520;-0.224;2023-10-13T10:55:12;11;10;
76679;PMS5003;65597;51.520;-0.224;2023-10-13T10:57:38;8;8;
76679;PMS5003;65597;51.520;-0.224;2023-10-13T11:00:03;14;10;
76679;PMS5003;65597;51.520;-0.224;2023-10-13T11:02:30;9;8;
76679;PMS5003;65597;51.520;-0.224;2023-10-13T11:04:53;16;12;
76679;PMS5003;65597;51.520;-0.224;2023-10-13T11:07:20;9;8;
76679;PMS5003;65597;51.520;-0.224;2023-10-13T11:09:45;9;8;
76679;PMS5003;65597;51.520;-0.224;2023-10-13T11:12:10;8;7;
76679;PMS5003;65597;51.520;-0.224;2023-10-13T11:14:35;11;9;
76679;PMS5003;65597;51.520;-0.224;2023-10-13T11:17:00;15;11;
76679;PMS5003;65597;51.520;-0.224;2023-10-13T11:21:52;12;10;
76679;PMS5003;65597;51.520;-0.224;2023-10-13T11:24:17;9;8;
76679;PMS5003;65597;51.520;-0.224;2023-10-13T11:26:42;10;9;
76679;PMS5003;65597;51.520;-0.224;2023-10-13T11:29:08;13;11;
76679;PMS5003;65597;51.520;-0.224;2023-10-13T11:31:33;12;11;
76679;PMS5003;65597;51.520;-0.224;2023-10-13T11:33:59;11;11;
76679;PMS5003;65597;51.520;-0.224;2023-10-13T11:36:24;12;11;
76679;PMS5003;65597;51.520;-0.224;2023-10-13T11:38:49;11;9;
76679;PMS5003;65597;51.520;-0.224;2023-10-13T11:41:15;10;10;
76679;PMS5003;65597;51.520;-0.224;2023-10-13T11:43:41;17;13;
76679;PMS5003;65597;51.520;-0.224;2023-10-13T11:46:07;12;11;
76679;PMS5003;65597;51.520;-0.224;2023-10-13T11:48:31;11;8;
76679;PMS5003;65597;51.520;-0.224;2023-10-13T11:50:56;16;14;
76679;PMS5003;65597;51.520;-0.224;2023-10-13T11:53:21;9;8;
76679;PMS5003;65597;51.520;-0.224;2023-10-13T11:55:46;10;10;
76679;PMS5003;65597;51.520;-0.224;2023-10-13T11:58:11;9;8;
76679;PMS5003;65597;51.520;-0.224;2023-10-13T12:00:37;9;9;
76679;PMS5003;65597;51.520;-0.224;2023-10-13T12:03:03;10;9;
76679;PMS5003;65597;51.520;-0.224;2023-10-13T12:05:29;10;8;
76679;PMS5003;65597;51.520;-0.224;2023-10-13T12:07:54;12;10;
76679;PMS5003;65597;51.520;-0.224;2023-10-13T12:10:19;16;13;
76679;PMS5003;65597;51.520;-0.224;2023-10-13T12:12:44;11;8;
76679;PMS5003;65597;51.520;-0.224;2023-10-13T12:15:10;13;11;
76679;PMS5003;65597;51.520;-0.224;2023-10-13T12:17:35;17;12;
76679;PMS5003;65597;51.520;-0.224;2023-10-13T12:20:00;13;12;
76679;PMS5003;65597;51.520;-0.224;2023-10-13T12:22:27;8;7;
76679;PMS5003;65597;51.520;-0.224;2023-10-13T12:24:51;10;9;
76679;PMS5003;65597;51.520;-0.224;2023-10-13T12:27:16;9;7;
76679;PMS5003;65597;51.520;-0.224;2023-10-13T12:29:41;8;8;
76679;PMS5003;65597;51.520;-0.224;2023-10-13T12:32:07;10;8;
76679;PMS5003;65597;51.520;-0.224;2023-10-13T12:34:33;12;9;
76679;PMS5003;65597;51.520;-0.224;2023-10-13T12:36:58;15;10;
76679;PMS5003;65597;51.520;-0.224;2023-10-13T12:39:24;10;8;
76679;PMS5003;65597;51.520;-0.224;2023-10-13T12:41:49;9;8;
76679;PMS5003;65597;51.520;-0.224;2023-10-13T12:44:15;17;9;
76679;PMS5003;65597;51.520;-0.224;2023-10-13T12:46:41;7;6;
76679;PMS5003;65597;51.520;-0.224;2023-10-13T12:49:06;15;9;
76679;PMS5003;65597;51.520;-0.224;2023-10-13T12:51:32;10;5;
76679;PMS5003;65597;51.520;-0.224;2023-10-13T12:53:57;6;6;
76679;PMS5003;65597;51.520;-0.224;2023-10-13T12:56:22;12;10;
76679;PMS5003;65597;51.520;-0.224;2023-10-13T12:58:48;7;6;
76679;PMS5003;65597;51.520;-0.224;2023-10-13T13:01:14;5;5;
76679;PMS5003;65597;51.520;-0.224;2023-10-13T13:03:39;5;4;
76679;PMS5003;65597;51.520;-0.224;2023-10-13T13:06:05;4;4;
76679;PMS5003;65597;51.520;-0.224;2023-10-13T13:08:30;8;6;
76679;PMS5003;65597;51.520;-0.224;2023-10-13T13:10:55;6;4;
76679;PMS5003;65597;51.520;-0.224;2023-10-13T13:13:21;6;4;
76679;PMS5003;65597;51.520;-0.224;2023-10-13T13:15:46;7;5;
76679;PMS5003;65597;51.520;-0.224;2023-10-13T13:18:11;7;4;
76679;PMS5003;65597;51.520;-0.224;2023-10-13T13:20:37;3;3;
76679;PMS5003;65597;51.520;-0.224;2023-10-13T13:23:02;6;5;
76679;PMS5003;65597;51.520;-0.224;2023-10-13T13:25:27;9;8;
76679;PMS5003;65597;51.520;-0.224;2023-10-13T13:27:53;6;4;
76679;PMS5003;65597;51.520;-0.224;2023-10-13T13:30:18;5;4;
76679;PMS5003;65597;51.520;-0.224;2023-10-13T13:32:43;4;4;
76679;PMS5003;65597;51.520;-0.224;2023-10-13T13:35:10;6;3;
76679;PMS5003;65597;51.520;-0.224;2023-10-13T13:37:34;6;4;
76679;PMS5003;65597;51.520;-0.224;2023-10-13T13:39:59;6;5;
76679;PMS5003;65597;51.520;-0.224;2023-10-13T13:42:24;6;4;
76679;PMS5003;65597;51.520;-0.224;2023-10-13T13:44:49;2;2;
76679;PMS5003;65597;51.520;-0.224;2023-10-13T13:47:15;2;2;
76679;PMS5003;65597;51.520;-0.224;2023-10-13T13:49:40;5;4;
76679;PMS5003;65597;51.520;-0.224;2023-10-13T13:52:05;5;5;
76679;PMS5003;65597;51.520;-0.224;2023-10-13T13:54:30;3;3;
76679;PMS5003;65597;51.520;-0.224;2023-10-13T13:56:55;5;4;
76679;PMS5003;65597;51.520;-0.224;2023-10-13T13:59:21;4;4;
76679;PMS5003;65597;51.520;-0.224;2023-10-13T14:01:47;7;5;
76679;PMS5003;65597;51.520;-0.224;2023-10-13T14:04:12;12;3;
76679;PMS5003;65597;51.520;-0.224;2023-10-13T14:06:38;7;4;
76679;PMS5003;65597;51.520;-0.224;2023-10-13T14:09:03;3;3;
76679;PMS5003;65597;51.520;-0.224;2023-10-13T14:11:29;3;2;
76679;PMS5003;65597;51.520;-0.224;2023-10-13T14:13:54;5;3;
76679;PMS5003;65597;51.520;-0.224;2023-10-13T14:16:19;3;2;
76679;PMS5003;65597;51.520;-0.224;2023-10-13T14:18:45;2;2;
76679;PMS5003;65597;51.520;-0.224;2023-10-13T14:21:11;3;1;
76679;PMS5003;65597;51.520;-0.224;2023-10-13T14:23:38;4;3;
76679;PMS5003;65597;51.520;-0.224;2023-10-13T14:26:02;2;2;
76679;PMS5003;65597;51.520;-0.224;2023-10-13T14:28:27;5;1;
76679;PMS5003;65597;51.520;-0.224;2023-10-13T14:30:53;3;3;
76679;PMS5003;65597;51.520;-0.224;2023-10-13T14:33:18;2;1;
76679;PMS5003;65597;51.520;-0.224;2023-10-13T14:35:44;4;2;
76679;PMS5003;65597;51.520;-0.224;2023-10-13T14:38:08;4;2;
76679;PMS5003;65597;51.520;-0.224;2023-10-13T14:40:33;4;3;
76679;PMS5003;65597;51.520;-0.224;2023-10-13T14:42:59;3;2;
76679;PMS5003;65597;51.520;-0.224;2023-10-13T14:45:25;3;1;
76679;PMS5003;65597;51.520;-0.224;2023-10-13T14:47:51;2;2;
76679;PMS5003;65597;51.520;-0.224;2023-10-13T14:50:16;4;3;
76679;PMS5003;65597;51.520;-0.224;2023-10-13T14:52:41;4;2;
76679;PMS5003;65597;51.520;-0.224;2023-10-13T14:55:08;8;3;
76679;PMS5003;65597;51.520;-0.224;2023-10-13T14:57:32;2;2;
76679;PMS5003;65597;51.520;-0.224;2023-10-13T15:00:01;6;4;
76679;PMS5003;65597;51.520;-0.224;2023-10-13T15:02:23;10;3;
76679;PMS5003;65597;51.520;-0.224;2023-10-13T15:04:48;5;3;
76679;PMS5003;65597;51.520;-0.224;2023-10-13T15:07:13;6;4;
76679;PMS5003;65597;51.520;-0.224;2023-10-13T15:09:39;10;6;
76679;PMS5003;65597;51.520;-0.224;2023-10-13T15:12:06;5;3;
76679;PMS5003;65597;51.520;-0.224;2023-10-13T15:14:30;5;5;
76679;PMS5003;65597;51.520;-0.224;2023-10-13T15:16:55;5;4;
76679;PMS5003;65597;51.520;-0.224;2023-10-13T15:19:20;7;5;
76679;PMS5003;65597;51.520;-0.224;2023-10-13T15:21:46;6;1;
76679;PMS5003;65597;51.520;-0.224;2023-10-13T15:24:13;8;4;
76679;PMS5003;65597;51.520;-0.224;2023-10-13T15:26:37;3;3;
76679;PMS5003;65597;51.520;-0.224;2023-10-13T15:29:02;7;4;
76679;PMS5003;65597;51.520;-0.224;2023-10-13T15:31:28;6;2;
76679;PMS5003;65597;51.520;-0.224;2023-10-13T15:33:54;4;4;
76679;PMS5003;65597;51.520;-0.224;2023-10-13T15:36:22;2;2;
76679;PMS5003;65597;51.520;-0.224;2023-10-13T15:38:44;4;3;
76679;PMS5003;65597;51.520;-0.224;2023-10-13T15:41:09;5;4;
76679;PMS5003;65597;51.520;-0.224;2023-10-13T15:43:35;3;2;
76679;PMS5003;65597;51.520;-0.224;2023-10-13T15:46:00;3;3;
76679;PMS5003;65597;51.520;-0.224;2023-10-13T15:48:27;7;3;
76679;PMS5003;65597;51.520;-0.224;2023-10-13T15:50:51;2;1;
76679;PMS5003;65597;51.520;-0.224;2023-10-13T15:53:17;3;2;
76679;PMS5003;65597;51.520;-0.224;2023-10-13T15:55:42;5;5;
76679;PMS5003;65597;51.520;-0.224;2023-10-13T15:58:08;6;3;
76679;PMS5003;65597;51.520;-0.224;2023-10-13T16:00:35;4;3;
76679;PMS5003;65597;51.520;-0.224;2023-10-13T16:02:58;3;3;
76679;PMS5003;65597;51.520;-0.224;2023-10-13T16:05:28;3;3;
76679;PMS5003;65597;51.520;-0.224;2023-10-13T16:07:50;3;1;
76679;PMS5003;65597;51.520;-0.224;2023-10-13T16:10:14;0;0;
76679;PMS5003;65597;51.520;-0.224;2023-10-13T16:12:41;1;0;
76679;PMS5003;65597;51.520;-0.224;2023-10-13T16:15:05;4;2;
76679;PMS5003;65597;51.520;-0.224;2023-10-13T16:17:30;2;1;
76679;PMS5003;65597;51.520;-0.224;2023-10-13T16:19:56;5;1;
76679;PMS5003;65597;51.520;-0.224;2023-10-13T16:22:21;2;2;